Time;durP1;ratioP1;P1;durP2;ratioP2;P2;SDS_P1;SDS_P2;PMS_P1;PMS_P2;Temp;Humidity;BMP_temperature;BMP_pressure;BME280_temperature;BME280_humidity;BME280_pressure;Samples;Min_cycle;Max_cycle;Signal;HPM_P1;HPM_P2
2022/01/14 02:05:41;;;;;;;68.10;28.13;;;;;;;-3.37;100.00;98069.91;4894980;29;20437;-90
2022/01/14 02:25:12;;;;;;;35.80;16.83;;;;;;;-3.38;100.00;98047.66;4886224;29;20489;-90
2022/01/14 02:55:45;;;;;;;36.43;17.80;;;;;;;-3.59;100.00;98028.31;4842588;29;20530;-89
2022/01/14 02:59:36;;;;;;;35.53;17.97;;;;;;;-3.60;100.00;98024.88;4861115;29;20488;-90
2022/01/14 03:07:07;;;;;;;33.53;16.20;;;;;;;-3.60;100.00;98017.16;4907340;29;20505;-89
2022/01/14 03:10:19;;;;;;;32.17;16.10;;;;;;;-3.59;100.00;98018.00;4859431;29;20573;-90
2022/01/14 03:25:49;;;;;;;33.40;16.40;;;;;;;-3.51;100.00;98000.75;4914811;29;20463;-91
2022/01/14 03:33:29;;;;;;;28.63;14.30;;;;;;;-3.51;100.00;97998.16;4873194;29;20052;-90
2022/01/14 03:41:54;;;;;;;25.77;12.83;;;;;;;-3.52;100.00;97993.03;4863517;29;20469;-90
2022/01/14 14:25:48;;;;;;;8.27;5.10;;;;;;;7.35;65.28;97688.34;4891894;29;20045;-91
2022/01/14 14:29:59;;;;;;;9.23;4.20;;;;;;;7.37;65.13;97688.25;4894373;28;20208;-91
2022/01/14 14:38:24;;;;;;;8.30;4.50;;;;;;;6.67;68.17;97683.28;5035025;28;20132;-91
2022/01/14 14:41:46;;;;;;;9.93;4.73;;;;;;;6.41;69.21;97687.59;5032429;28;20119;-92
2022/01/14 15:04:16;;;;;;;7.87;4.10;;;;;;;5.25;75.69;97685.09;4948593;28;20108;-92
2022/01/14 19:11:53;;;;;;;42.53;24.13;;;;;;;0.67;100.00;97655.19;5009054;28;20472;-89
2022/01/14 19:14:19;;;;;;;59.60;27.73;;;;;;;0.59;100.00;97652.06;5010151;28;20575;-89
2022/01/14 19:16:46;;;;;;;41.83;22.33;;;;;;;0.46;100.00;97649.13;5027991;28;20681;-89
2022/01/14 19:19:18;;;;;;;39.87;20.67;;;;;;;0.26;100.00;97656.00;5019850;28;20033;-88
2022/01/14 19:21:59;;;;;;;35.93;19.93;;;;;;;0.14;100.00;97649.59;5021831;28;20476;-89
2022/01/14 19:24:35;;;;;;;526.70;344.23;;;;;;;-0.02;100.00;97660.53;5025483;28;20456;-89
2022/01/14 19:27:08;;;;;;;334.53;202.10;;;;;;;0.05;100.00;97666.31;5013562;28;21044;-89
2022/01/14 19:29:34;;;;;;;195.50;119.68;;;;;;;-0.07;100.00;97664.16;5015790;28;20826;-88
2022/01/14 19:32:04;;;;;;;77.53;45.90;;;;;;;-0.18;100.00;97662.00;5032166;28;20037;-88
2022/01/14 19:34:34;;;;;;;38.43;23.63;;;;;;;0.02;100.00;97663.81;5037047;28;20088;-89
2022/01/14 19:37:01;;;;;;;41.83;25.37;;;;;;;-0.16;100.00;97660.22;5019795;28;22329;-89
2022/01/14 19:39:28;;;;;;;53.33;30.87;;;;;;;-0.19;100.00;97667.25;5028172;28;20487;-89
2022/01/14 19:41:54;;;;;;;83.43;46.23;;;;;;;-0.26;100.00;97671.81;5019951;28;20475;-89
2022/01/14 19:44:20;;;;;;;68.77;38.23;;;;;;;-0.31;100.00;97660.78;5012776;28;20112;-89
2022/01/14 19:46:51;;;;;;;68.17;39.33;;;;;;;-0.38;100.00;97664.50;5025896;28;20469;-89
2022/01/14 19:49:17;;;;;;;65.97;36.43;;;;;;;-0.43;100.00;97659.50;5011408;28;20569;-89
2022/01/14 19:51:45;;;;;;;59.13;33.80;;;;;;;-0.37;100.00;97663.59;5035562;28;20466;-89
2022/01/14 19:54:10;;;;;;;57.20;33.00;;;;;;;-0.41;100.00;97649.94;5024672;28;20542;-89
2022/01/14 19:56:36;;;;;;;50.20;28.73;;;;;;;-0.37;100.00;97648.94;5046460;28;20491;-89
2022/01/14 19:59:02;;;;;;;55.93;33.50;;;;;;;-0.44;100.00;97646.63;5048696;28;20037;-90
2022/01/14 20:01:28;;;;;;;64.53;38.97;;;;;;;-0.48;100.00;97651.91;5024863;28;20033;-89
2022/01/14 20:03:54;;;;;;;68.13;37.87;;;;;;;-0.52;100.00;97649.50;5034538;28;20077;-89
2022/01/14 20:06:19;;;;;;;59.27;35.00;;;;;;;-0.52;100.00;97640.00;5032176;28;20036;-89
2022/01/14 20:08:45;;;;;;;46.63;28.57;;;;;;;-0.54;100.00;97635.78;5032393;28;20030;-89
2022/01/14 20:11:11;;;;;;;38.50;24.63;;;;;;;-0.44;100.00;97636.28;5029937;28;20079;-89
2022/01/14 20:13:37;;;;;;;52.70;32.50;;;;;;;-0.67;100.00;97634.53;5028157;28;20445;-89
2022/01/14 20:16:05;;;;;;;55.80;34.03;;;;;;;-0.81;100.00;97645.38;5014292;28;20037;-88
2022/01/14 20:18:31;;;;;;;57.03;34.30;;;;;;;-0.83;100.00;97636.88;5011615;28;20575;-89
2022/01/14 20:21:01;;;;;;;45.37;27.13;;;;;;;-0.86;100.00;97639.56;5034955;28;20499;-89
2022/01/14 20:23:27;;;;;;;42.77;23.83;;;;;;;-0.87;100.00;97633.53;5014679;28;20033;-89
2022/01/14 20:26:01;;;;;;;41.47;22.50;;;;;;;-0.99;100.00;97633.97;4996232;28;20456;-89
2022/01/14 20:28:26;;;;;;;37.83;22.73;;;;;;;-1.03;100.00;97629.81;5018106;28;20123;-88
2022/01/14 20:30:52;;;;;;;28.77;16.30;;;;;;;-0.99;100.00;97623.66;5022237;28;20950;-89
2022/01/14 20:33:18;;;;;;;54.27;24.83;;;;;;;-1.13;100.00;97626.72;5048207;28;20036;-89
2022/01/14 20:35:54;;;;;;;37.03;19.37;;;;;;;-1.14;100.00;97624.16;5041610;28;20043;-88
2022/01/14 20:38:20;;;;;;;26.37;13.53;;;;;;;-1.03;100.00;97629.81;5019432;28;20113;-88
2022/01/14 20:40:45;;;;;;;30.80;17.43;;;;;;;-1.20;100.00;97620.91;5023346;28;20562;-89
2022/01/14 20:43:13;;;;;;;27.10;16.30;;;;;;;-1.17;100.00;97614.81;5030213;28;20138;-88
2022/01/14 20:45:39;;;;;;;28.43;16.83;;;;;;;-1.20;100.00;97614.91;5024006;28;20034;-88
2022/01/14 20:48:12;;;;;;;30.13;17.73;;;;;;;-1.18;100.00;97623.44;5019637;28;20498;-88
2022/01/14 20:50:48;;;;;;;29.17;16.83;;;;;;;-1.23;100.00;97613.28;5042320;28;20450;-88
2022/01/14 20:53:17;;;;;;;32.47;16.07;;;;;;;-1.25;100.00;97622.78;5032238;28;21068;-88
2022/01/14 20:55:43;;;;;;;29.13;15.07;;;;;;;-1.33;100.00;97611.91;5040263;28;20476;-89
2022/01/14 20:58:11;;;;;;;30.27;15.77;;;;;;;-1.33;100.00;97608.50;5039385;28;20519;-88
2022/01/14 21:00:37;;;;;;;29.70;15.90;;;;;;;-1.33;100.00;97608.50;5049016;28;20527;-89
2022/01/14 21:03:07;;;;;;;30.27;16.30;;;;;;;-1.32;100.00;97602.44;5041660;28;20523;-87
2022/01/14 21:05:35;;;;;;;24.33;14.23;;;;;;;-1.33;100.00;97609.31;5051832;28;20487;-89
2022/01/14 21:08:02;;;;;;;23.83;14.00;;;;;;;-1.39;100.00;97613.84;5016752;28;20488;-89
2022/01/14 21:10:28;;;;;;;22.23;13.30;;;;;;;-1.53;100.00;97614.31;5031322;28;20492;-89
2022/01/14 21:12:56;;;;;;;22.93;13.53;;;;;;;-1.45;100.00;97609.72;5036814;28;20476;-89
2022/01/14 21:15:22;;;;;;;24.37;14.13;;;;;;;-1.51;100.00;97610.81;5043904;28;20468;-89
2022/01/14 21:17:48;;;;;;;22.90;13.97;;;;;;;-1.48;100.00;97610.66;5037792;22;20544;-76
2022/01/14 21:20:19;;;;;;;24.10;12.23;;;;;;;-1.59;100.00;97612.78;5015319;28;20481;-76
2022/01/14 21:22:47;;;;;;;24.60;13.63;;;;;;;-1.56;100.00;97602.34;5012208;28;20495;-77
2022/01/14 21:25:15;;;;;;;26.20;14.90;;;;;;;-1.51;100.00;97609.94;5020937;28;20428;-75
2022/01/14 21:27:41;;;;;;;25.73;14.17;;;;;;;-1.64;100.00;97608.66;5036383;28;20467;-76
2022/01/14 21:30:07;;;;;;;24.83;13.67;;;;;;;-1.74;100.00;97611.56;5049785;28;20510;-76
2022/01/14 21:32:34;;;;;;;20.93;13.07;;;;;;;-1.69;100.00;97611.41;5044053;28;20061;-76
2022/01/14 21:35:04;;;;;;;25.03;14.03;;;;;;;-1.71;100.00;97618.31;5027018;28;20539;-75
2022/01/14 21:37:31;;;;;;;23.23;14.47;;;;;;;-1.68;100.00;97608.78;5042141;28;20520;-75
2022/01/14 21:39:58;;;;;;;27.03;16.57;;;;;;;-1.73;100.00;97615.81;5001740;28;20563;-75
2022/01/14 21:42:24;;;;;;;29.27;17.77;;;;;;;-1.75;100.00;97612.44;5019462;28;20446;-76
2022/01/14 21:44:50;;;;;;;30.93;18.70;;;;;;;-1.77;100.00;97615.97;5035240;28;20455;-75
2022/01/14 21:47:17;;;;;;;30.40;16.87;;;;;;;-1.76;100.00;97608.16;4999472;28;20085;-76
2022/01/14 21:49:43;;;;;;;25.17;14.20;;;;;;;-1.83;100.00;97605.84;5015058;28;20456;-75
2022/01/14 21:52:09;;;;;;;20.87;13.17;;;;;;;-1.91;100.00;97600.94;5029557;28;20464;-76
2022/01/14 21:54:35;;;;;;;24.33;13.00;;;;;;;-1.99;100.00;97610.66;4993842;28;20576;-75
2022/01/14 21:57:00;;;;;;;28.70;14.53;;;;;;;-1.94;100.00;97607.03;5032253;28;20029;-76
2022/01/14 21:59:26;;;;;;;28.00;14.70;;;;;;;-2.00;100.00;97603.81;5027334;28;20028;-76
2022/01/14 22:01:53;;;;;;;29.87;15.87;;;;;;;-1.96;100.00;97607.97;5034610;28;20064;-76
2022/01/14 22:04:20;;;;;;;32.13;18.77;;;;;;;-1.99;100.00;97608.06;5022208;28;20478;-75
2022/01/14 22:06:46;;;;;;;27.90;14.77;;;;;;;-1.97;100.00;97606.28;5020863;28;20566;-75
2022/01/14 22:09:16;;;;;;;30.37;14.37;;;;;;;-1.94;100.00;97596.72;5020329;28;21302;-75
2022/01/14 22:11:42;;;;;;;28.80;15.83;;;;;;;-1.94;100.00;97606.19;5021006;28;20061;-76
2022/01/14 22:14:11;;;;;;;24.37;13.53;;;;;;;-1.93;100.00;97598.41;5037853;28;20581;-75
2022/01/14 22:16:37;;;;;;;22.23;12.33;;;;;;;-1.96;100.00;97595.91;5027740;28;20386;-75
2022/01/14 22:19:02;;;;;;;21.40;12.10;;;;;;;-1.99;100.00;97597.75;5003460;28;20460;-75
2022/01/14 22:21:29;;;;;;;19.73;10.83;;;;;;;-2.01;100.00;97604.69;5025999;28;20535;-76
2022/01/14 22:23:55;;;;;;;22.20;13.10;;;;;;;-2.05;100.00;97595.38;4993991;28;20021;-75
2022/01/14 22:26:21;;;;;;;26.13;12.40;;;;;;;-2.06;100.00;97594.53;4998997;28;21093;-75
2022/01/14 22:28:47;;;;;;;21.90;12.10;;;;;;;-2.13;100.00;97586.16;5036206;28;20530;-76
2022/01/14 22:31:12;;;;;;;25.17;15.00;;;;;;;-2.16;100.00;97591.41;5044269;28;20028;-76
2022/01/14 22:33:38;;;;;;;32.13;14.93;;;;;;;-2.14;100.00;97579.31;5024206;28;20048;-76
2022/01/14 22:36:04;;;;;;;34.30;16.13;;;;;;;-2.15;100.00;97575.06;5012207;28;20041;-75
2022/01/14 22:38:31;;;;;;;34.57;16.70;;;;;;;-2.13;100.00;97577.56;5031153;28;20199;-75
2022/01/14 22:40:58;;;;;;;26.27;14.50;;;;;;;-2.06;100.00;97575.66;5030003;28;20598;-77
2022/01/14 22:43:24;;;;;;;25.37;14.27;;;;;;;-2.15;100.00;97580.22;5027266;28;20471;-75
2022/01/14 22:45:50;;;;;;;24.60;14.20;;;;;;;-2.21;100.00;97582.97;5036361;28;20452;-75
2022/01/14 22:48:17;;;;;;;24.27;12.97;;;;;;;-2.26;100.00;97564.22;5025982;28;20107;-75
2022/01/14 22:50:44;;;;;;;27.93;15.97;;;;;;;-2.21;100.00;97564.09;5025602;28;20459;-75
2022/01/14 22:53:10;;;;;;;22.23;13.70;;;;;;;-2.29;100.00;97564.31;5021597;28;20464;-75
2022/01/14 22:55:36;;;;;;;25.10;15.07;;;;;;;-2.27;100.00;97557.41;5006009;28;21264;-75
2022/01/14 22:58:02;;;;;;;26.93;15.40;;;;;;;-2.26;100.00;97561.66;5008558;28;20472;-76
2022/01/14 23:00:30;;;;;;;26.47;13.47;;;;;;;-2.32;100.00;97558.41;5023962;28;20722;-75
2022/01/14 23:02:55;;;;;;;23.00;12.57;;;;;;;-2.38;100.00;97567.22;5021656;28;21052;-75
2022/01/14 23:05:21;;;;;;;23.70;13.97;;;;;;;-2.32;100.00;97561.84;5005577;28;20558;-75
2022/01/14 23:07:48;;;;;;;19.93;12.17;;;;;;;-2.36;100.00;97557.69;5004850;28;20039;-76
2022/01/14 23:10:15;;;;;;;18.33;10.73;;;;;;;-2.33;100.00;97554.16;5027796;28;20985;-75
2022/01/14 23:12:41;;;;;;;23.27;12.27;;;;;;;-2.36;100.00;97562.84;5038979;28;20488;-75
2022/01/14 23:15:09;;;;;;;17.07;10.60;;;;;;;-2.36;100.00;97560.25;5032978;28;21293;-75
2022/01/14 23:17:35;;;;;;;19.73;11.63;;;;;;;-2.33;100.00;97544.69;5022022;28;20524;-75
2022/01/14 23:20:02;;;;;;;21.13;11.07;;;;;;;-2.33;100.00;97546.44;5015763;28;20476;-75
2022/01/14 23:22:27;;;;;;;23.77;11.67;;;;;;;-2.39;100.00;97543.16;4999357;28;20041;-75
2022/01/14 23:24:53;;;;;;;20.67;10.97;;;;;;;-2.44;100.00;97550.19;5026689;28;20546;-75
2022/01/14 23:27:19;;;;;;;20.30;11.87;;;;;;;-2.44;100.00;97546.78;5005570;28;20112;-75
2022/01/14 23:29:44;;;;;;;18.67;10.43;;;;;;;-2.40;100.00;97531.16;5014818;28;20047;-75
2022/01/14 23:32:10;;;;;;;23.00;12.00;;;;;;;-2.43;100.00;97539.00;5014574;28;20038;-75
2022/01/14 23:34:36;;;;;;;20.50;12.37;;;;;;;-2.48;100.00;97535.72;5009967;28;20508;-75
2022/01/14 23:37:01;;;;;;;19.70;12.47;;;;;;;-2.62;100.00;97535.28;5027313;28;20021;-75
2022/01/14 23:39:27;;;;;;;17.90;11.30;;;;;;;-2.57;100.00;97530.84;5014313;28;20128;-76
2022/01/14 23:41:53;;;;;;;19.50;11.80;;;;;;;-2.55;100.00;97538.53;5016333;28;20021;-74
2022/01/14 23:44:39;;;;;;;18.70;10.53;;;;;;;-2.57;100.00;97535.16;5030190;28;20411;-75
2022/01/14 23:47:47;;;;;;;16.80;9.83;;;;;;;-2.66;100.00;97534.53;5028778;28;20116;-75
2022/01/14 23:49:53;;;;;;;25.77;14.83;;;;;;;-2.68;100.00;97531.19;5017898;28;20476;-75
2022/01/14 23:52:21;;;;;;;21.67;12.57;;;;;;;-2.65;100.00;97538.81;4995949;28;20455;-75
2022/01/14 23:54:48;;;;;;;25.87;14.10;;;;;;;-2.71;100.00;97531.28;5031895;28;20029;-75
2022/01/14 23:57:14;;;;;;;20.87;12.70;;;;;;;-2.69;100.00;97520.91;5005327;28;20460;-76
2022/01/14 23:59:40;;;;;;;20.97;11.87;;;;;;;-2.71;100.00;97528.72;5018522;28;21090;-75
